Time;durP1;ratioP1;P1;durP2;ratioP2;P2;SDS_P1;SDS_P2;PMS_P1;PMS_P2;Temp;Humidity;BMP_temperature;BMP_pressure;BME280_temperature;BME280_humidity;BME280_pressure;Samples;Min_cycle;Max_cycle;Signal;HPM_P1;HPM_P2
2022/06/29 00:00:12;;;;;;;8.23;5.35;;;14.20;1.00;;;;;;4974148;28;20051;-75
2022/06/29 00:02:38;;;;;;;8.57;5.32;;;14.10;1.00;;;;;;4974317;28;20015;-75
2022/06/29 00:05:05;;;;;;;7.85;5.53;;;14.40;1.00;;;;;;4959876;28;20476;-75
2022/06/29 00:07:31;;;;;;;9.13;6.25;;;14.20;1.00;;;;;;4954936;28;20031;-75
2022/06/29 00:09:57;;;;;;;10.45;5.40;;;14.10;1.00;;;;;;4954840;28;20600;-75
2022/06/29 00:12:23;;;;;;;6.47;5.65;;;14.10;1.00;;;;;;4970413;28;20021;-76
2022/06/29 00:14:48;;;;;;;7.50;5.68;;;14.10;1.00;;;;;;4973875;28;20063;-76
2022/06/29 00:17:14;;;;;;;10.70;5.93;;;14.00;1.00;;;;;;4974093;28;20055;-75
2022/06/29 00:19:41;;;;;;;9.05;5.63;;;14.00;1.00;;;;;;4973989;28;20106;-75
2022/06/29 00:22:07;;;;;;;7.65;5.70;;;14.20;1.00;;;;;;4973986;28;20038;-76
2022/06/29 00:24:33;;;;;;;8.38;5.60;;;14.10;1.00;;;;;;4973871;28;20030;-75
2022/06/29 00:27:01;;;;;;;7.72;5.70;;;14.10;1.00;;;;;;4973790;28;20109;-76
2022/06/29 00:29:28;;;;;;;5.93;4.88;;;14.10;1.00;;;;;;4973842;28;20035;-76
2022/06/29 00:31:54;;;;;;;8.30;5.40;;;14.00;1.00;;;;;;4974148;28;20167;-75
2022/06/29 00:34:19;;;;;;;5.82;4.80;;;14.10;1.00;;;;;;4973599;28;20701;-75
2022/06/29 00:36:45;;;;;;;6.85;5.10;;;14.10;1.00;;;;;;4973801;28;20042;-74
2022/06/29 00:39:11;;;;;;;9.27;5.85;;;14.00;1.00;;;;;;4973712;28;20074;-74
2022/06/29 00:41:44;;;;;;;5.90;5.32;;;14.00;1.00;;;;;;4973553;28;20072;-75
2022/06/29 00:44:17;;;;;;;6.63;5.60;;;13.90;1.00;;;;;;4973705;28;20026;-75
2022/06/29 00:46:47;;;;;;;6.28;5.05;;;13.80;1.00;;;;;;4973857;28;20485;-75
2022/06/29 00:49:15;;;;;;;5.25;4.75;;;14.10;1.00;;;;;;4974011;28;20034;-75
2022/06/29 00:51:45;;;;;;;6.88;5.35;;;14.00;1.00;;;;;;4973690;28;20049;-75
2022/06/29 00:54:13;;;;;;;;;;;14.00;1.00;;;;;;4954864;28;20046;-75
2022/06/29 00:56:40;;;;;;;7.05;4.90;;;13.80;1.00;;;;;;4954124;28;19937;-75
2022/06/29 00:59:07;;;;;;;5.30;4.80;;;13.80;1.00;;;;;;4971900;28;20510;-75
2022/06/29 01:01:35;;;;;;;7.65;5.13;;;13.90;1.00;;;;;;4973437;28;20051;-75
2022/06/29 01:04:00;;;;;;;8.70;5.80;;;13.80;1.00;;;;;;4973539;28;20042;-75
2022/06/29 01:06:26;;;;;;;5.18;4.68;;;13.80;1.00;;;;;;4973419;28;20026;-75
2022/06/29 01:08:52;;;;;;;8.85;5.22;;;13.90;1.00;;;;;;4973260;28;20106;-75
2022/06/29 01:11:17;;;;;;;5.22;4.72;;;13.90;1.00;;;;;;4973324;28;20051;-75
2022/06/29 01:13:44;;;;;;;5.35;4.60;;;13.80;1.00;;;;;;4973383;28;20019;-75
2022/06/29 01:16:10;;;;;;;5.35;4.85;;;13.80;1.00;;;;;;4973208;28;20039;-75
2022/06/29 01:18:36;;;;;;;7.10;4.65;;;13.80;1.00;;;;;;4973228;28;20041;-75
2022/06/29 01:21:08;;;;;;;6.07;5.05;;;13.70;1.00;;;;;;4973493;28;20019;-75
2022/06/29 01:23:34;;;;;;;9.45;4.65;;;13.70;1.00;;;;;;4973353;28;20039;-75
2022/06/29 01:26:07;;;;;;;10.43;4.95;;;13.70;1.00;;;;;;4973436;28;20030;-76
2022/06/29 01:28:33;;;;;;;6.90;4.97;;;13.60;1.00;;;;;;4973301;28;20107;-76
2022/06/29 01:30:59;;;;;;;6.35;4.80;;;13.70;1.00;;;;;;4973183;28;20027;-75
2022/06/29 01:33:25;;;;;;;7.13;4.70;;;13.70;1.00;;;;;;4973225;28;20027;-76
2022/06/29 01:35:51;;;;;;;5.53;5.03;;;13.60;1.00;;;;;;4972851;28;20073;-76
2022/06/29 01:38:18;;;;;;;5.63;4.50;;;13.80;1.00;;;;;;4974145;28;20030;-76
2022/06/29 01:40:44;;;;;;;5.45;4.88;;;13.60;1.00;;;;;;4976828;28;20578;-76
2022/06/29 01:43:09;;;;;;;6.78;4.68;;;13.50;1.00;;;;;;4957971;28;20102;-76
2022/06/29 01:45:35;;;;;;;5.55;5.05;;;13.40;1.00;;;;;;4959697;28;20038;-75
2022/06/29 01:48:01;;;;;;;6.93;5.30;;;13.50;1.00;;;;;;4976849;28;20106;-75
2022/06/29 01:50:27;;;;;;;5.28;4.75;;;13.50;1.00;;;;;;4976654;28;20027;-75
2022/06/29 01:52:54;;;;;;;6.18;5.32;;;13.60;1.00;;;;;;4976465;28;20026;-75
2022/06/29 01:55:19;;;;;;;7.63;5.40;;;13.50;1.00;;;;;;4976533;28;20046;-75
2022/06/29 01:57:45;;;;;;;5.45;4.85;;;13.60;1.00;;;;;;4976477;28;20026;-75
2022/06/29 02:00:11;;;;;;;6.65;5.05;;;13.60;1.00;;;;;;4976520;28;20487;-76
2022/06/29 02:02:36;;;;;;;5.82;4.90;;;13.50;1.00;;;;;;4977410;28;20972;-75
2022/06/29 02:05:02;;;;;;;5.82;4.90;;;13.60;1.00;;;;;;4995945;28;20597;-75
2022/06/29 02:07:28;;;;;;;8.98;5.00;;;13.60;1.00;;;;;;4995814;28;20584;-76
2022/06/29 02:09:53;;;;;;;6.05;5.05;;;13.60;1.00;;;;;;4995822;28;20073;-76
2022/06/29 02:12:19;;;;;;;6.07;4.75;;;13.60;1.00;;;;;;4980391;28;20022;-75
2022/06/29 02:14:44;;;;;;;7.32;5.40;;;13.60;1.00;;;;;;4976194;28;20106;-75
2022/06/29 02:17:11;;;;;;;7.68;5.47;;;13.60;1.00;;;;;;4976250;28;20026;-75
2022/06/29 02:19:37;;;;;;;7.65;5.30;;;13.70;1.00;;;;;;4975005;28;20030;-75
2022/06/29 02:22:02;;;;;;;7.47;5.63;;;13.70;1.00;;;;;;4976097;28;20356;-75
2022/06/29 02:24:28;;;;;;;10.88;5.20;;;13.70;1.00;;;;;;4976212;28;20045;-75
2022/06/29 02:26:54;;;;;;;6.35;5.40;;;13.60;1.00;;;;;;4976176;28;20034;-75
2022/06/29 02:29:19;;;;;;;6.40;5.60;;;13.50;1.00;;;;;;4976079;28;20081;-75
2022/06/29 02:34:44;;;;;;;6.47;4.68;;;13.70;1.00;;;;;;4975723;28;20125;-76
2022/06/29 02:37:11;;;;;;;9.55;5.63;;;13.60;1.00;;;;;;4975928;28;20042;-76
2022/06/29 02:39:38;;;;;;;7.45;5.68;;;13.60;1.00;;;;;;4975710;28;20150;-76
2022/06/29 02:42:04;;;;;;;5.97;5.40;;;13.70;1.00;;;;;;4975997;28;20068;-76
2022/06/29 02:44:30;;;;;;;6.65;5.32;;;13.60;1.00;;;;;;4975742;28;20018;-76
2022/06/29 02:46:55;;;;;;;6.32;5.40;;;13.70;1.00;;;;;;4975734;28;20045;-75
2022/06/29 02:49:21;;;;;;;6.35;5.35;;;13.70;1.00;;;;;;4975135;28;20026;-76
2022/06/29 02:51:47;;;;;;;6.93;5.03;;;13.90;1.00;;;;;;4974858;28;20078;-76
2022/06/29 02:54:12;;;;;;;7.57;5.70;;;13.60;1.00;;;;;;4990816;28;20018;-76
2022/06/29 02:56:38;;;;;;;6.03;5.43;;;13.70;1.00;;;;;;4994923;28;20101;-75
2022/06/29 02:59:04;;;;;;;6.30;5.70;;;13.70;1.00;;;;;;4994823;28;20471;-76
2022/06/29 03:01:30;;;;;;;7.05;5.72;;;13.70;1.00;;;;;;4994870;28;20030;-76
2022/06/29 03:03:55;;;;;;;6.15;5.55;;;13.80;1.00;;;;;;4986379;28;20414;-76
2022/06/29 03:06:21;;;;;;;7.40;5.28;;;13.90;1.00;;;;;;4975297;28;20106;-76
2022/06/29 03:08:46;;;;;;;6.68;5.93;;;13.80;1.00;;;;;;4972014;28;20475;-75
2022/06/29 03:11:12;;;;;;;6.28;5.60;;;13.80;1.00;;;;;;4958702;28;20027;-75
2022/06/29 03:13:37;;;;;;;6.03;5.43;;;13.80;1.00;;;;;;4974885;28;20065;-75
2022/06/29 03:16:03;;;;;;;7.57;5.80;;;13.80;1.00;;;;;;4974957;28;20031;-75
2022/06/29 03:18:29;;;;;;;6.50;5.45;;;13.90;1.00;;;;;;4974923;28;20029;-75
2022/06/29 03:20:55;;;;;;;6.60;5.45;;;13.90;1.00;;;;;;4975340;28;20022;-75
2022/06/29 03:23:20;;;;;;;7.07;5.85;;;13.90;1.00;;;;;;4974902;28;20035;-75
2022/06/29 03:25:46;;;;;;;6.18;5.57;;;13.90;1.00;;;;;;4974899;28;20370;-75
2022/06/29 03:28:12;;;;;;;6.95;6.25;;;14.00;1.00;;;;;;4975025;28;20033;-75
2022/06/29 03:30:37;;;;;;;6.07;5.32;;;14.00;1.00;;;;;;4974267;28;20031;-75
2022/06/29 03:33:03;;;;;;;6.32;5.07;;;14.00;1.00;;;;;;4974824;28;20109;-75
2022/06/29 03:35:29;;;;;;;7.22;5.28;;;14.10;1.00;;;;;;4974328;28;20108;-75
2022/06/29 03:37:54;;;;;;;8.90;5.82;;;14.00;1.00;;;;;;4974659;28;20031;-75
2022/06/29 03:40:20;;;;;;;7.00;6.20;;;14.10;1.00;;;;;;4974699;28;20019;-75
2022/06/29 03:42:45;;;;;;;9.02;6.15;;;14.20;1.00;;;;;;4974484;28;20027;-75
2022/06/29 03:45:11;;;;;;;7.00;5.75;;;14.20;1.00;;;;;;4974674;28;20030;-75
2022/06/29 03:47:36;;;;;;;5.97;5.40;;;14.20;1.00;;;;;;4964081;28;20023;-75
2022/06/29 03:50:02;;;;;;;6.13;5.60;;;14.30;1.00;;;;;;4972109;28;20375;-75
2022/06/29 03:52:28;;;;;;;6.47;5.68;;;14.30;1.00;;;;;;4974433;28;20023;-75
2022/06/29 03:54:53;;;;;;;9.35;6.03;;;14.40;1.00;;;;;;4974246;28;20109;-74
2022/06/29 03:57:19;;;;;;;11.32;6.07;;;14.50;1.00;;;;;;4974303;28;20392;-75
2022/06/29 03:59:44;;;;;;;6.93;6.15;;;14.60;1.00;;;;;;4974320;28;20118;-76
2022/06/29 04:02:10;;;;;;;7.10;5.70;;;14.70;1.00;;;;;;4969604;28;20035;-76
2022/06/29 04:04:36;;;;;;;8.13;6.28;;;14.70;99.90;;;;;;4954911;28;20031;-76
2022/06/29 04:07:01;;;;;;;7.65;5.93;;;14.90;99.90;;;;;;4954954;28;20030;-76
2022/06/29 04:09:27;;;;;;;6.53;5.93;;;15.50;99.90;;;;;;4954852;28;20438;-76
2022/06/29 04:11:53;;;;;;;8.70;5.55;;;15.30;99.90;;;;;;4954880;28;20105;-76
2022/06/29 04:14:22;;;;;;;7.18;5.88;;;15.80;99.90;;;;;;4965573;28;20410;-76
2022/06/29 04:16:49;;;;;;;7.15;5.43;;;17.20;99.90;;;;;;4973747;28;20027;-76
2022/06/29 04:19:16;;;;;;;6.57;4.75;;;17.10;99.90;;;;;;4976485;28;20429;-76
2022/06/29 04:21:42;;;;;;;7.30;5.60;;;16.40;99.90;;;;;;4982149;28;20082;-75
2022/06/29 04:24:08;;;;;;;5.85;5.25;;;16.30;99.90;;;;;;4983443;28;20050;-76
2022/06/29 04:26:34;;;;;;;6.18;5.57;;;17.20;99.90;;;;;;4985156;28;20027;-76
2022/06/29 04:28:59;;;;;;;6.80;5.15;;;16.70;99.90;;;;;;4973830;28;20027;-76
2022/06/29 04:31:25;;;;;;;5.63;4.55;;;16.40;99.90;;;;;;4973751;28;20033;-76
2022/06/29 04:33:50;;;;;;;6.78;4.78;;;16.20;99.90;;;;;;4973733;28;20112;-76
2022/06/29 04:36:16;;;;;;;8.05;5.30;;;16.00;99.90;;;;;;4977585;28;20058;-76
2022/06/29 04:38:42;;;;;;;6.35;5.63;;;16.80;99.90;;;;;;4993055;28;20084;-76
2022/06/29 04:41:07;;;;;;;5.57;4.95;;;16.30;99.90;;;;;;4993067;28;20098;-76
2022/06/29 04:43:33;;;;;;;5.60;5.10;;;16.40;99.90;;;;;;4993069;28;20170;-76
2022/06/29 04:48:44;;;;;;;6.00;5.40;;;17.60;99.90;;;;;;4993195;28;20060;-75
2022/06/29 04:51:09;;;;;;;6.78;5.40;;;16.70;99.90;;;;;;4993234;28;20030;-75
2022/06/29 04:53:35;;;;;;;5.63;4.82;;;17.50;99.90;;;;;;4986752;28;20030;-76
2022/06/29 04:56:01;;;;;;;5.78;5.05;;;16.90;99.90;;;;;;4973409;28;20083;-75
2022/06/29 04:58:27;;;;;;;5.50;5.00;;;16.50;99.90;;;;;;4973367;28;20467;-76
2022/06/29 05:00:52;;;;;;;5.38;4.78;;;16.50;99.90;;;;;;4973469;28;20031;-76
2022/06/29 05:03:18;;;;;;;5.80;5.20;;;16.50;99.90;;;;;;4973442;28;20471;-75
2022/06/29 05:05:44;;;;;;;5.45;4.80;;;16.40;99.90;;;;;;4973780;28;20113;-77
2022/06/29 05:08:09;;;;;;;5.28;4.88;;;19.50;99.90;;;;;;4973870;28;20026;-77
2022/06/29 05:10:35;;;;;;;6.93;4.78;;;22.40;99.90;;;;;;4972383;28;20027;-77
2022/06/29 05:13:01;;;;;;;6.18;4.90;;;24.00;99.90;;;;;;4972909;28;20045;-77
2022/06/29 05:15:27;;;;;;;5.20;4.75;;;24.50;99.90;;;;;;4975903;28;20027;-78
2022/06/29 05:17:52;;;;;;;6.07;4.50;;;24.70;99.90;;;;;;4957629;28;20097;-77
2022/06/29 05:20:20;;;;;;;5.07;4.60;;;25.20;99.90;;;;;;4956691;28;20024;-78
2022/06/29 05:22:46;;;;;;;4.47;4.07;;;26.00;99.90;;;;;;4969713;28;20105;-77
2022/06/29 05:25:12;;;;;;;5.50;4.15;;;26.30;99.90;;;;;;4976133;28;20134;-78
2022/06/29 05:27:37;;;;;;;4.45;3.75;;;27.50;99.90;;;;;;4981715;28;20029;-78
2022/06/29 05:30:03;;;;;;;4.47;4.05;;;28.30;99.90;;;;;;4996675;28;20022;-77
2022/06/29 05:32:29;;;;;;;4.70;4.15;;;27.70;99.90;;;;;;4995386;28;20073;-78
2022/06/29 05:34:55;;;;;;;5.05;3.50;;;26.40;99.90;;;;;;4984134;28;20106;-78
2022/06/29 05:37:20;;;;;;;5.28;3.88;;;26.90;99.90;;;;;;4976150;28;20027;-78
2022/06/29 05:39:46;;;;;;;3.72;3.30;;;26.40;99.90;;;;;;4975896;28;20026;-77
2022/06/29 05:42:12;;;;;;;4.30;3.90;;;29.30;99.90;;;;;;4962327;28;20023;-76
2022/06/29 05:44:38;;;;;;;3.60;3.30;;;29.40;99.90;;;;;;4976802;28;20029;-76
2022/06/29 05:47:04;;;;;;;4.32;3.63;;;29.90;99.90;;;;;;4976688;28;20394;-76
2022/06/29 05:49:30;;;;;;;4.80;3.45;;;28.90;99.90;;;;;;4976663;28;20458;-76
2022/06/29 05:51:55;;;;;;;3.40;3.00;;;29.60;99.90;;;;;;4976895;28;20019;-76
2022/06/29 05:54:21;;;;;;;3.83;3.35;;;29.80;99.90;;;;;;4976681;28;20018;-76
2022/06/29 05:56:47;;;;;;;3.85;3.40;;;28.70;99.90;;;;;;4977723;28;20035;-76
2022/06/29 05:59:12;;;;;;;4.35;3.25;;;28.60;99.90;;;;;;4977024;28;20030;-75
2022/06/29 06:01:38;;;;;;;3.65;3.35;;;29.50;99.90;;;;;;4976379;28;20455;-75
2022/06/29 06:04:04;;;;;;;3.90;3.60;;;31.20;99.90;;;;;;4976738;28;20031;-75
2022/06/29 06:06:29;;;;;;;5.47;3.90;;;31.00;99.90;;;;;;4976322;28;20037;-75
2022/06/29 06:08:55;;;;;;;3.78;3.45;;;29.60;99.90;;;;;;4957135;28;20035;-75
2022/06/29 06:11:20;;;;;;;3.67;3.35;;;30.40;99.90;;;;;;4956880;28;20031;-75
2022/06/29 06:13:46;;;;;;;4.13;3.55;;;30.50;99.90;;;;;;4956972;28;20133;-75
2022/06/29 06:16:12;;;;;;;3.65;3.30;;;30.20;99.90;;;;;;4956931;28;20027;-75
2022/06/29 06:18:37;;;;;;;4.78;3.40;;;29.40;99.90;;;;;;4956864;28;20114;-73
2022/06/29 06:21:03;;;;;;;6.68;3.45;;;31.50;99.90;;;;;;4956828;28;20463;-73
2022/06/29 06:23:28;;;;;;;3.53;3.30;;;32.90;99.90;;;;;;4956754;28;20046;-73
2022/06/29 06:25:54;;;;;;;3.47;3.17;;;34.00;99.90;;;;;;4956343;28;20059;-73
2022/06/29 06:28:19;;;;;;;4.53;3.20;;;33.70;99.90;;;;;;4974742;28;20030;-73
2022/06/29 06:30:45;;;;;;;3.75;3.42;;;32.80;99.90;;;;;;4975953;28;20371;-74
2022/06/29 06:33:10;;;;;;;5.35;3.30;;;28.80;99.90;;;;;;4975827;28;20033;-73
2022/06/29 06:35:36;;;;;;;3.55;3.25;;;31.50;99.90;;;;;;4975087;28;20157;-73
2022/06/29 06:38:03;;;;;;;4.03;3.08;;;31.40;99.90;;;;;;4967507;28;20023;-73
2022/06/29 06:43:12;;;;;;;3.28;2.97;;;33.70;99.90;;;;;;4959831;28;20033;-74
2022/06/29 06:45:38;;;;;;;4.13;3.17;;;33.00;99.90;;;;;;4958055;28;20027;-74
2022/06/29 06:48:04;;;;;;;3.78;3.10;;;33.60;99.90;;;;;;4956291;28;20452;-74
2022/06/29 06:50:30;;;;;;;4.35;3.20;;;33.40;99.90;;;;;;4970824;28;20031;-74
2022/06/29 06:52:55;;;;;;;3.15;2.40;;;32.70;99.90;;;;;;4988368;28;20042;-75
2022/06/29 06:55:21;;;;;;;2.97;2.70;;;35.50;99.90;;;;;;4979853;28;20023;-76
2022/06/29 06:57:47;;;;;;;2.88;2.67;;;34.00;99.90;;;;;;4975334;28;20105;-76
2022/06/29 07:00:13;;;;;;;3.42;3.00;;;34.30;99.90;;;;;;4975520;28;20038;-76
2022/06/29 07:02:39;;;;;;;6.50;2.67;;;33.80;99.90;;;;;;4966666;28;20028;-75
2022/06/29 07:05:05;;;;;;;4.72;2.60;;;35.00;99.90;;;;;;4956034;28;20031;-74
2022/06/29 07:07:30;;;;;;;2.80;2.60;;;36.40;99.90;;;;;;4955818;28;20031;-74
2022/06/29 07:09:56;;;;;;;3.40;2.45;;;36.30;99.90;;;;;;4955866;28;20034;-74
2022/06/29 07:12:21;;;;;;;5.53;2.65;;;37.40;99.90;;;;;;4955754;28;20379;-74
2022/06/29 07:14:47;;;;;;;3.35;2.90;;;37.20;99.90;;;;;;4955795;28;20054;-74
2022/06/29 07:17:13;;;;;;;3.22;2.30;;;35.30;99.90;;;;;;4955816;28;20087;-74
2022/06/29 07:19:38;;;;;;;2.42;2.20;;;35.90;99.90;;;;;;4955746;28;20031;-74
2022/06/29 07:22:04;;;;;;;2.70;2.50;;;37.00;99.90;;;;;;4955729;28;20055;-74
2022/06/29 07:24:29;;;;;;;2.83;2.40;;;34.20;99.90;;;;;;4955706;28;20340;-74
2022/06/29 07:26:56;;;;;;;2.63;2.42;;;35.10;99.90;;;;;;4955489;28;20031;-75
2022/06/29 07:29:22;;;;;;;2.58;2.38;;;37.10;99.90;;;;;;4955960;28;20042;-75
2022/06/29 07:31:48;;;;;;;5.47;2.50;;;36.80;99.90;;;;;;4955601;28;20030;-75
2022/06/29 07:34:14;;;;;;;2.83;2.45;;;32.70;99.90;;;;;;4955492;28;20491;-75
2022/06/29 07:36:39;;;;;;;4.50;2.50;;;33.50;99.90;;;;;;4954476;28;20101;-75
2022/06/29 07:39:05;;;;;;;2.75;2.17;;;36.90;99.90;;;;;;4955473;28;20475;-75
2022/06/29 07:41:31;;;;;;;5.20;2.42;;;37.70;99.90;;;;;;4955246;28;20023;-75
2022/06/29 07:43:56;;;;;;;3.45;2.20;;;35.90;99.90;;;;;;4955215;28;20027;-74
2022/06/29 07:46:22;;;;;;;3.47;2.10;;;36.50;99.90;;;;;;4962082;28;20027;-74
2022/06/29 07:48:48;;;;;;;2.55;2.35;;;41.10;99.90;;;;;;4974578;28;20019;-75
2022/06/29 07:51:14;;;;;;;2.00;1.67;;;38.30;99.90;;;;;;4974563;28;20030;-75
2022/06/29 07:53:39;;;;;;;2.63;2.08;;;41.10;99.90;;;;;;4974306;28;20117;-74
2022/06/29 07:56:05;;;;;;;2.35;2.08;;;39.90;99.90;;;;;;4974333;28;20066;-75
2022/06/29 07:58:31;;;;;;;2.65;1.70;;;39.80;99.90;;;;;;4969803;28;20023;-75
2022/06/29 08:00:57;;;;;;;2.08;1.80;;;41.00;99.90;;;;;;4969237;28;20042;-75
2022/06/29 08:03:23;;;;;;;2.33;1.70;;;42.10;99.90;;;;;;4955127;28;20110;-74
2022/06/29 08:05:48;;;;;;;2.75;1.98;;;43.80;99.90;;;;;;4962952;28;20101;-75
2022/06/29 08:08:14;;;;;;;3.38;2.10;;;41.20;99.90;;;;;;4974236;28;20019;-74
2022/06/29 08:10:40;;;;;;;2.03;1.67;;;40.70;99.90;;;;;;4974181;28;20041;-75
2022/06/29 08:13:06;;;;;;;2.75;2.03;;;41.30;99.90;;;;;;4974101;28;20082;-74
2022/06/29 08:15:31;;;;;;;2.28;1.90;;;40.60;99.90;;;;;;4973882;28;20038;-74
2022/06/29 08:17:57;;;;;;;2.38;1.83;;;42.90;99.90;;;;;;4974036;28;20033;-75
2022/06/29 08:20:23;;;;;;;3.00;1.85;;;42.50;99.90;;;;;;4973884;28;20105;-75
2022/06/29 08:22:49;;;;;;;3.05;1.85;;;43.30;99.90;;;;;;4973897;28;20098;-75
2022/06/29 08:25:15;;;;;;;2.40;2.00;;;42.90;99.90;;;;;;4974304;28;20773;-74
2022/06/29 08:27:41;;;;;;;2.45;1.80;;;43.40;99.90;;;;;;4979704;28;20018;-75
2022/06/29 08:30:09;;;;;;;2.53;2.00;;;44.90;99.90;;;;;;4993355;28;20146;-74
2022/06/29 08:32:35;;;;;;;2.17;1.60;;;44.00;99.90;;;;;;4954442;28;20423;-75
2022/06/29 08:35:01;;;;;;;2.80;1.92;;;44.40;99.90;;;;;;4953671;28;20763;-74
2022/06/29 08:37:28;;;;;;;2.53;2.05;;;43.40;99.90;;;;;;4966458;28;20601;-74
2022/06/29 08:39:54;;;;;;;2.22;1.90;;;42.80;99.90;;;;;;4973388;28;20102;-74
2022/06/29 08:42:23;;;;;;;2.15;1.90;;;42.40;99.90;;;;;;4973445;28;20029;-74
2022/06/29 08:44:50;;;;;;;3.63;2.00;;;42.50;99.90;;;;;;4988943;28;20030;-74
2022/06/29 08:47:16;;;;;;;3.90;1.70;;;44.10;99.90;;;;;;4992958;28;20030;-74
2022/06/29 08:49:44;;;;;;;2.15;2.00;;;41.90;99.90;;;;;;4992769;28;20085;-74
2022/06/29 08:52:10;;;;;;;3.25;2.00;;;41.60;99.90;;;;;;4993034;28;20014;-74
2022/06/29 08:54:40;;;;;;;4.15;1.98;;;43.60;99.90;;;;;;4983682;28;20089;-75
2022/06/29 08:57:07;;;;;;;1.60;1.50;;;41.20;99.90;;;;;;4986354;28;20378;-74
2022/06/29 08:59:34;;;;;;;3.97;1.92;;;43.20;99.90;;;;;;4984909;28;20028;-74
2022/06/29 09:02:00;;;;;;;2.53;1.58;;;43.20;99.90;;;;;;4976212;28;20026;-74
2022/06/29 09:04:26;;;;;;;3.55;2.15;;;42.30;99.90;;;;;;4973268;28;20451;-73
2022/06/29 09:06:56;;;;;;;2.40;2.03;;;40.50;99.90;;;;;;4973315;28;20078;-73
2022/06/29 09:09:22;;;;;;;2.30;1.80;;;37.20;99.90;;;;;;4965244;28;20024;-74
2022/06/29 09:11:53;;;;;;;3.83;2.08;;;38.70;99.90;;;;;;4953368;29;20059;-74
2022/06/29 09:14:23;;;;;;;2.42;2.10;;;39.00;99.90;;;;;;4952925;29;20020;-74
2022/06/29 09:16:49;;;;;;;2.75;1.92;;;40.70;99.90;;;;;;4953502;28;20031;-74
2022/06/29 09:19:19;;;;;;;2.35;2.00;;;44.60;99.90;;;;;;4957862;28;20031;-73
2022/06/29 09:21:50;;;;;;;2.13;1.73;;;42.00;99.90;;;;;;4992547;28;20026;-73
2022/06/29 09:24:24;;;;;;;2.30;1.88;;;42.40;99.90;;;;;;4992470;28;20030;-73
2022/06/29 09:26:55;;;;;;;3.88;2.20;;;44.50;99.90;;;;;;4992573;28;20030;-73
2022/06/29 09:29:25;;;;;;;2.33;2.03;;;41.50;99.90;;;;;;4953692;28;20702;-73
2022/06/29 09:32:06;;;;;;;5.97;1.65;;;43.50;99.90;;;;;;4953837;28;20034;-73
2022/06/29 09:34:46;;;;;;;1.98;1.60;;;45.80;99.90;;;;;;4965470;28;20463;-73
2022/06/29 09:37:16;;;;;;;3.33;1.50;;;46.30;99.90;;;;;;4969756;28;20034;-73
2022/06/29 09:39:44;;;;;;;2.08;1.80;;;45.00;99.90;;;;;;4967480;28;20030;-74
2022/06/29 09:42:16;;;;;;;2.35;1.58;;;41.90;99.90;;;;;;4972151;28;20022;-73
2022/06/29 09:44:42;;;;;;;1.70;1.60;;;44.00;99.90;;;;;;4986323;28;20026;-73
2022/06/29 09:47:12;;;;;;;1.70;1.40;;;42.30;99.90;;;;;;4968465;28;20027;-73
2022/06/29 09:49:38;;;;;;;1.75;1.65;;;41.30;99.90;;;;;;4961406;28;20058;-74
2022/06/29 09:52:06;;;;;;;2.15;1.70;;;43.50;99.90;;;;;;4962585;28;20028;-74
2022/06/29 09:54:50;;;;;;;1.33;1.20;;;42.50;99.90;;;;;;4986617;28;20026;-74
2022/06/29 09:57:19;;;;;;;1.85;1.75;;;44.70;99.90;;;;;;4971690;28;20031;-73
2022/06/29 10:02:37;;;;;;;2.90;1.50;;;44.30;99.90;;;;;;4960746;28;20084;-73
2022/06/29 10:05:06;;;;;;;1.90;1.80;;;44.60;99.90;;;;;;4956938;28;20382;-73
2022/06/29 10:07:33;;;;;;;2.05;1.83;;;40.50;99.90;;;;;;4956861;28;20038;-74
2022/06/29 10:10:00;;;;;;;1.85;1.70;;;38.60;99.90;;;;;;4975379;28;20030;-74
2022/06/29 10:15:56;;;;;;;2.83;1.50;;;39.40;99.90;;;;;;4967282;28;20090;-73
2022/06/29 10:18:31;;;;;;;1.60;1.50;;;40.90;99.90;;;;;;4956840;28;20098;-74
2022/06/29 10:20:57;;;;;;;2.35;1.55;;;41.90;99.90;;;;;;4956705;28;20027;-73
2022/06/29 10:23:42;;;;;;;3.10;1.45;;;44.20;99.90;;;;;;4956631;28;20028;-73
2022/06/29 10:26:34;;;;;;;4.38;1.67;;;41.60;99.90;;;;;;4957915;28;20046;-73
2022/06/29 10:29:06;;;;;;;2.72;1.60;;;39.00;99.90;;;;;;4976318;28;20023;-74
2022/06/29 10:34:31;;;;;;;2.20;1.58;;;39.90;99.90;;;;;;4976655;28;20034;-73
2022/06/29 10:36:59;;;;;;;1.83;1.40;;;41.00;99.90;;;;;;4963476;28;20435;-73
2022/06/29 10:39:27;;;;;;;1.60;1.50;;;43.00;99.90;;;;;;4962043;28;20023;-73
2022/06/29 10:45:17;;;;;;;1.63;1.48;;;43.80;99.90;;;;;;4976935;28;20042;-73
2022/06/29 10:48:07;;;;;;;1.83;1.50;;;38.80;99.90;;;;;;4960256;28;20077;-73
2022/06/29 10:50:34;;;;;;;1.30;1.20;;;41.90;99.90;;;;;;4955000;28;20062;-73
2022/06/29 10:53:08;;;;;;;3.30;1.30;;;42.30;99.90;;;;;;4964116;28;20022;-74
2022/06/29 10:55:37;;;;;;;2.00;1.40;;;41.50;99.90;;;;;;4993787;28;20146;-73
2022/06/29 10:58:03;;;;;;;2.38;1.35;;;42.20;99.90;;;;;;4993389;28;20049;-73
2022/06/29 11:00:31;;;;;;;2.47;1.55;;;40.40;99.90;;;;;;4988022;28;20059;-73
2022/06/29 11:02:57;;;;;;;1.75;1.50;;;37.20;99.90;;;;;;4954922;28;20015;-73
2022/06/29 11:05:23;;;;;;;1.50;1.35;;;36.30;99.90;;;;;;4955147;28;20399;-74
2022/06/29 11:13:30;;;;;;;1.77;1.23;;;38.00;99.90;;;;;;4965785;28;20547;-73
2022/06/29 11:15:58;;;;;;;2.85;1.58;;;37.60;99.90;;;;;;4955667;28;20034;-73
2022/06/29 11:18:30;;;;;;;1.75;1.65;;;37.40;99.90;;;;;;4955722;28;20023;-73
2022/06/29 11:21:03;;;;;;;1.80;1.50;;;38.50;99.90;;;;;;4991630;28;20145;-73
2022/06/29 11:23:33;;;;;;;3.05;1.50;;;38.80;99.90;;;;;;4955630;28;20027;-73
2022/06/29 11:26:00;;;;;;;2.65;1.35;;;37.20;99.90;;;;;;4955808;28;20061;-73
2022/06/29 11:28:36;;;;;;;3.53;1.60;;;36.50;99.90;;;;;;4979498;28;20026;-73
2022/06/29 11:31:09;;;;;;;1.63;1.50;;;36.90;99.90;;;;;;4955634;28;20022;-74
2022/06/29 11:33:44;;;;;;;4.03;1.52;;;35.80;99.90;;;;;;4955491;28;20030;-74
2022/06/29 11:36:13;;;;;;;1.40;1.30;;;33.60;99.90;;;;;;4966736;28;20105;-74
2022/06/29 11:38:44;;;;;;;2.42;1.65;;;33.40;99.90;;;;;;4973333;28;20023;-74
2022/06/29 11:44:28;;;;;;;1.42;1.40;;;33.90;99.90;;;;;;4994388;28;20029;-75
2022/06/29 11:46:55;;;;;;;;;;;33.20;99.90;;;;;;4994151;28;20029;-74
2022/06/29 11:52:08;;;;;;;1.70;1.60;;;32.70;99.90;;;;;;4955143;29;20034;-74
2022/06/29 11:54:35;;;;;;;3.20;1.83;;;32.60;99.90;;;;;;4955222;29;20046;-73
2022/06/29 11:57:15;;;;;;;1.73;1.40;;;32.60;99.90;;;;;;4957035;28;20087;-73
2022/06/29 11:59:43;;;;;;;2.53;1.50;;;32.20;99.90;;;;;;4974476;28;20094;-74
2022/06/29 12:02:10;;;;;;;1.55;1.40;;;32.50;99.90;;;;;;4974544;28;20026;-73
2022/06/29 12:04:39;;;;;;;2.63;1.40;;;32.40;99.90;;;;;;4974170;28;20029;-74
2022/06/29 12:07:05;;;;;;;;;;;31.60;99.90;;;;;;4987362;28;20093;-73
2022/06/29 12:09:31;;;;;;;1.65;1.20;;;32.40;99.90;;;;;;4973423;28;20635;-73
2022/06/29 12:11:57;;;;;;;1.33;1.25;;;33.00;99.90;;;;;;4973988;28;20019;-74
2022/06/29 12:14:22;;;;;;;2.63;1.92;;;33.00;99.90;;;;;;4973925;28;20031;-73
2022/06/29 12:16:48;;;;;;;1.73;1.52;;;33.20;99.90;;;;;;4973764;28;20038;-73
2022/06/29 12:19:13;;;;;;;3.35;1.42;;;32.30;99.90;;;;;;4983706;28;20026;-73
2022/06/29 12:21:39;;;;;;;3.08;1.48;;;33.00;99.90;;;;;;4993083;28;20023;-74
2022/06/29 12:24:05;;;;;;;1.83;1.30;;;32.70;99.90;;;;;;4992994;28;20026;-73
2022/06/29 12:26:30;;;;;;;2.45;1.50;;;32.80;99.90;;;;;;4993277;28;20022;-73
2022/06/29 12:28:56;;;;;;;1.60;1.50;;;32.10;99.90;;;;;;4976705;28;20026;-73
2022/06/29 12:31:21;;;;;;;2.47;1.50;;;32.10;99.90;;;;;;4973735;28;20058;-73
2022/06/29 12:33:47;;;;;;;2.00;1.60;;;32.20;99.90;;;;;;4973721;28;20019;-73
2022/06/29 12:36:13;;;;;;;1.60;1.50;;;32.40;99.90;;;;;;4973109;28;20047;-73
2022/06/29 12:38:38;;;;;;;1.73;1.20;;;32.50;99.90;;;;;;4973684;28;20095;-73
2022/06/29 12:41:04;;;;;;;1.40;1.30;;;32.20;99.90;;;;;;4973986;28;20019;-73
2022/06/29 12:43:29;;;;;;;5.53;1.52;;;32.70;99.90;;;;;;4974951;28;20029;-73
2022/06/29 12:45:55;;;;;;;1.30;1.20;;;32.90;99.90;;;;;;4973532;28;20031;-73
2022/06/29 12:48:21;;;;;;;1.70;1.40;;;31.90;99.90;;;;;;4973349;28;20026;-73
2022/06/29 12:50:46;;;;;;;1.52;1.38;;;31.70;99.90;;;;;;4973499;28;20495;-74
2022/06/29 12:53:12;;;;;;;4.05;1.60;;;32.30;99.90;;;;;;4973409;28;20479;-73
2022/06/29 12:55:38;;;;;;;1.42;1.33;;;32.80;99.90;;;;;;4973368;28;20066;-72
2022/06/29 12:58:04;;;;;;;1.42;1.33;;;33.90;99.90;;;;;;4973620;28;20443;-72
2022/06/29 13:00:29;;;;;;;2.42;1.60;;;33.30;99.90;;;;;;4973397;28;20103;-73
2022/06/29 13:02:55;;;;;;;2.65;1.45;;;34.00;99.90;;;;;;4973261;28;20031;-73
2022/06/29 13:05:21;;;;;;;1.73;1.50;;;33.60;99.90;;;;;;4955965;28;20090;-73
2022/06/29 13:07:47;;;;;;;2.47;1.30;;;34.10;99.90;;;;;;4953985;28;20015;-73
2022/06/29 13:10:12;;;;;;;1.67;1.48;;;34.00;99.90;;;;;;4954159;28;20110;-72
2022/06/29 13:12:38;;;;;;;2.30;1.30;;;33.50;99.90;;;;;;4961094;28;20118;-73
2022/06/29 13:15:04;;;;;;;3.05;1.58;;;33.90;99.90;;;;;;4960602;28;20027;-73
2022/06/29 13:17:30;;;;;;;1.50;1.40;;;33.90;99.90;;;;;;4967864;28;20026;-73
2022/06/29 13:19:56;;;;;;;2.38;1.27;;;33.80;99.90;;;;;;4973194;28;20031;-75